createdAt,value
2023-02-11T00:03:30.142Z,19.10
2023-02-11T00:23:40.981Z,20.30
2023-02-11T00:33:47.315Z,21.50
2023-02-11T00:43:53.891Z,18.90
2023-02-11T00:53:59.763Z,24.90
2023-02-11T01:04:05.893Z,24.30
2023-02-11T01:14:11.776Z,21.10
2023-02-11T01:24:18.765Z,27.30
2023-02-11T01:34:25.298Z,31.50
2023-02-11T01:44:34.557Z,22.20
2023-02-11T01:55:01.370Z,29.20
2023-02-11T02:05:16.014Z,26.90
2023-02-11T02:15:25.207Z,25.80
2023-02-11T02:26:03.945Z,24.10
2023-02-11T02:36:23.789Z,21.00
2023-02-11T02:46:32.029Z,25.20
2023-02-11T02:56:46.455Z,25.90
2023-02-11T03:06:59.061Z,23.50
2023-02-11T03:17:08.275Z,20.30
2023-02-11T03:27:21.919Z,22.30
2023-02-11T03:37:34.281Z,22.10
2023-02-11T03:47:43.804Z,21.70
2023-02-11T03:57:50.061Z,21.30
2023-02-11T04:07:56.055Z,25.40
2023-02-11T04:18:03.455Z,24.80
2023-02-11T04:28:09.456Z,28.60
2023-02-11T04:38:15.674Z,24.70
2023-02-11T04:48:21.479Z,21.90
2023-02-11T04:58:27.294Z,23.70
2023-02-11T05:08:33.806Z,27.00
2023-02-11T05:18:42.095Z,28.90
2023-02-11T05:28:48.226Z,24.70
2023-02-11T05:38:54.235Z,27.40
2023-02-11T05:49:00.194Z,25.80
2023-02-11T05:59:06.019Z,26.60
2023-02-11T06:09:12.679Z,31.40
2023-02-11T06:19:18.582Z,27.20
2023-02-11T06:29:24.497Z,28.00
2023-02-11T06:39:30.787Z,34.90
2023-02-11T06:59:41.283Z,38.00
2023-02-11T07:09:47.401Z,33.30
2023-02-11T07:19:53.379Z,31.10
2023-02-11T07:29:59.198Z,35.40
2023-02-11T07:40:05.476Z,34.80
2023-02-11T07:50:11.724Z,36.70
2023-02-11T08:00:21.129Z,30.30
2023-02-11T08:10:27.390Z,32.30
2023-02-11T08:20:33.477Z,31.60
2023-02-11T08:30:39.442Z,39.30
2023-02-11T08:40:45.376Z,40.90
2023-02-11T08:50:51.475Z,40.00
2023-02-11T09:00:57.476Z,40.80
2023-02-11T09:11:03.860Z,41.50
2023-02-11T09:21:11.515Z,38.10
2023-02-11T09:31:20.339Z,33.80
2023-02-11T09:41:57.199Z,31.90
2023-02-11T09:52:07.385Z,34.70
2023-02-11T10:02:25.445Z,36.40
2023-02-11T10:12:56.464Z,51.30
2023-02-11T10:23:09.895Z,45.40
2023-02-11T10:33:21.556Z,40.00
2023-02-11T10:43:32.102Z,40.70
2023-02-11T10:53:38.149Z,42.90
2023-02-11T11:03:52.215Z,38.10
2023-02-11T11:14:01.196Z,43.70
2023-02-11T11:24:15.758Z,35.40
2023-02-11T11:34:30.672Z,43.80
2023-02-11T11:44:38.328Z,49.80
2023-02-11T11:54:49.107Z,42.20
2023-02-11T12:05:09.117Z,41.30
2023-02-11T12:15:32.122Z,42.60
2023-02-11T12:25:44.905Z,39.80
2023-02-11T12:35:59.522Z,38.70
2023-02-11T12:46:44.597Z,37.00
2023-02-11T12:56:56.732Z,38.00
2023-02-11T13:07:10.780Z,41.50
2023-02-11T13:17:21.784Z,42.80
2023-02-11T13:27:38.820Z,40.30
2023-02-11T13:37:50.084Z,40.10
2023-02-11T13:48:01.065Z,37.10
2023-02-11T13:58:40.003Z,45.20
2023-02-11T14:09:09.037Z,42.50
2023-02-11T14:19:31.867Z,38.70
2023-02-11T14:29:43.125Z,40.20
2023-02-11T14:40:03.805Z,38.50
2023-02-11T14:50:20.497Z,37.30
2023-02-11T15:00:26.545Z,37.90
2023-02-11T15:10:36.472Z,38.20
2023-02-11T15:20:43.886Z,43.70
2023-02-11T15:30:57.845Z,33.30
2023-02-11T15:41:07.547Z,34.50
2023-02-11T15:51:22.189Z,32.00
2023-02-11T16:01:38.272Z,31.70
2023-02-11T16:11:58.224Z,29.40
2023-02-11T16:22:09.666Z,25.90
2023-02-11T16:32:20.967Z,32.70
2023-02-11T16:42:26.902Z,30.70
2023-02-11T16:52:37.556Z,26.10
2023-02-11T17:02:43.776Z,24.30
2023-02-11T17:12:50.442Z,27.60
2023-02-11T17:22:56.485Z,24.40
2023-02-11T17:33:02.494Z,23.90
2023-02-11T17:43:08.467Z,19.70
2023-02-11T17:53:14.895Z,17.60
2023-02-11T18:03:20.681Z,18.50
2023-02-11T18:13:26.780Z,18.30
2023-02-11T18:23:33.156Z,17.40
2023-02-11T18:33:40.086Z,15.50
2023-02-11T18:43:46.641Z,18.80
2023-02-11T18:53:52.657Z,17.00
2023-02-11T19:04:02.897Z,17.10
2023-02-11T19:14:10.406Z,16.40
2023-02-11T19:24:19.818Z,16.30
2023-02-11T19:34:26.208Z,16.80
2023-02-11T19:44:32.332Z,19.40
2023-02-11T19:54:38.739Z,21.70
2023-02-11T20:04:44.765Z,18.20
2023-02-11T20:14:50.764Z,20.90
2023-02-11T20:24:56.853Z,20.40
2023-02-11T20:35:02.660Z,21.30
2023-02-11T20:45:09.497Z,19.60
2023-02-11T20:55:15.513Z,23.90
2023-02-11T21:05:21.891Z,21.30
2023-02-11T21:15:28.091Z,28.40
2023-02-11T21:25:34.321Z,22.40
2023-02-11T21:35:40.584Z,22.00
2023-02-11T21:45:48.249Z,21.00
2023-02-11T21:56:07.946Z,19.30
2023-02-11T22:06:16.777Z,22.60
2023-02-11T22:16:27.872Z,20.30
2023-02-11T22:26:34.356Z,22.50
2023-02-11T22:36:45.254Z,14.70
2023-02-11T22:46:51.337Z,17.00
2023-02-11T22:56:57.209Z,17.00
2023-02-11T23:07:03.150Z,18.90
2023-02-11T23:17:09.161Z,19.30
2023-02-11T23:27:14.986Z,18.60
2023-02-11T23:37:21.055Z,22.00
2023-02-11T23:47:26.941Z,15.10
2023-02-11T23:57:34.386Z,14.50
